HKEL

Eldoret International Airport

Eldoret, Kenya
METAR HKEL 211330Z 10010KT 9999 FEW022CB SCT023 23/10 Q1024
Observed Flight Rules
Jul-21 @ 13:30 UTC (21 minutes ago) Visual Flight Rules
Wind Visibility Clouds
100° at 10 knots 10,000+ meters
  • Few at 2,200' AGL
  • Scattered at 2,300' AGL
Temperatures Readings
Current 23°C / 73°F
Dewpoint 10°C / 50°F
Humidity 44%
Altimeter 30.24" Hg
Pressure 1024 hPa
Elevation 2133
METAR HKEL 211330Z 10010KT 9999 FEW022CB SCT023 23/10 Q1024
Observed Flight Rules
Jul-21 @ 13:30 UTC
(21 minutes ago)
VFR
Wind Visibility
100° at 10 knots 10,000+ meters
Clouds
  • Few at 2,200' AGL
  • Scattered at 2,300' AGL
Temperature Dewpoint
23°C / 73°F 10°C / 50°F
Humidity Altimeter Pressure
44% 30.24" Hg 1024 hPa